Flight Track Log - Related Links

Times and Time Zones

All times are in EDT time to prevent confusion due to time zone crossing. See the CHQ6342 flight status page for this flight to view local times or setup timezone preferences in your user account.

Time Position Orientation Groundspeed Altitude Reporting Facility
EDT Latitude Longitude Course Direction KTS MPH feet Rate Location/Type
Mon 06:45:40 AM 41.4194 -81.8403 90° East 170 196 1,700  Level Cleveland Center
Mon 06:46:28 AM 41.4636 -81.8106 27° Northeast 213 245 3,200 1,964 Climbing Cleveland Center
Mon 06:46:35 AM 41.4697 -81.8053 33° Northeast 219 252 3,500 2,328 Climbing Cleveland Center
Mon 06:47:35 AM 41.5181 -81.7700 29° Northeast 235 270 5,800 2,380 Climbing Cleveland Center
Mon 06:48:00 AM 41.3895 -81.4204 37° Northeast  Level Estimated
Mon 06:48:36 AM 41.5686 -81.7156 39° Northeast 235 270 8,300  Level Cleveland Center
Mon 06:49:00 AM 41.3824 -81.2757 105° East  Level Estimated
Mon 06:49:35 AM 41.6192 -81.6608 39° Northeast 235 270 10,600  Level Cleveland Center
Mon 06:50:00 AM 41.3752 -81.1311 97° East  Level Estimated
Mon 06:50:36 AM 41.6761 -81.5978 40° Northeast 245 282 12,100  Level Cleveland Center
Mon 06:51:00 AM 41.3679 -80.9864 90° East  Level Estimated
Mon 06:51:35 AM 41.7433 -81.5267 38° Northeast 279 321 13,400  Level Cleveland Center
Mon 06:52:36 AM 41.8150 -81.4411 42° Northeast 301 346 15,000 1,686 Climbing Cleveland Center
Mon 06:53:36 AM 41.8264 -81.3189 83° East 326 375 16,800 1,765 Climbing Cleveland Center
Mon 06:54:35 AM 41.8103 -81.1961 100° East 320 368 18,500 1,765 Climbing Cleveland Center
Mon 06:55:35 AM 41.7983 -81.0733 97° East 331 381 20,300 1,850 Climbing Cleveland Center
Mon 06:56:35 AM 41.7822 -80.9536 100° East 331 381 22,200 1,686 Climbing Cleveland Center
Mon 06:57:36 AM 41.7700 -80.8281 97° East 338 389 23,700 1,550 Climbing Cleveland Center
Mon 06:58:35 AM 41.7514 -80.7056 101° East 333 383 25,300 1,450 Climbing Cleveland Center
Mon 06:59:36 AM 41.7264 -80.5831 105° East 333 383 26,600 1,100 Climbing Cleveland Center
Mon 07:00:35 AM 41.7036 -80.4719 105° East 338 389 27,500 1,000 Climbing Cleveland Center
Mon 07:01:36 AM 41.6783 -80.3414 104° East 350 403 28,600 1,100 Climbing Cleveland Center
Mon 07:02:35 AM 41.6550 -80.2025 103° East 365 420 29,700 1,100 Climbing Cleveland Center
Mon 07:03:36 AM 41.6253 -80.0636 106° East 379 436 30,800 645 Climbing Cleveland Center
Mon 07:04:36 AM 41.5933 -79.9169 106° East 386 444 31,000 100 Climbing Cleveland Center
Mon 07:05:36 AM 41.5608 -79.7589 105° East 413 475 31,000  Level Cleveland Center
Mon 07:06:36 AM 41.5264 -79.5958 106° East 438 504 31,000  Level Cleveland Center
Mon 07:07:36 AM 41.4833 -79.4411 110° East 443 510 31,000  Level Cleveland Center
Mon 07:08:36 AM 41.3961 -79.2933 128° Southeast 452 520 31,000  Level Cleveland Center
Mon 07:09:35 AM 41.3217 -79.1564 126° Southeast 458 527 31,000  Level Cleveland Center
Mon 07:10:35 AM 41.2739 -79.0111 114° Southeast 431 496 31,000  Level Cleveland Center
Mon 07:11:36 AM 41.2633 -78.8539 95° East 425 489 31,000  Level Cleveland Center
Mon 07:12:36 AM 41.2522 -78.6939 95° East 425 489 31,000  Level Cleveland Center
Mon 07:13:35 AM 41.2433 -78.5369 94° East 430 495 31,000  Level Cleveland Center
Mon 07:14:51 AM 41.2306 -78.3333 95° East 441 507 31,000  Level New York Center
Mon 07:15:51 AM 41.2175 -78.1775 96° East 441 507 31,000  Level New York Center
Mon 07:16:51 AM 41.1981 -78.0181 99° East 436 502 31,000  Level New York Center
Mon 07:17:51 AM 41.1786 -77.8586 99° East 436 502 31,000  Level New York Center
Mon 07:18:51 AM 41.1589 -77.6994 99° East 436 502 31,000 -650 Level New York Center
Mon 07:19:51 AM 41.1328 -77.5344 102° East 441 507 29,700 -1,250 Descending New York Center
Mon 07:20:51 AM 41.1114 -77.4000 102° East 453 521 28,500 -1,550 Descending New York Center
Mon 07:21:51 AM 41.0767 -77.1983 103° East 459 528 26,600 -1,700 Descending New York Center
Mon 07:22:51 AM 41.0500 -77.0333 102° East 459 528 25,100 -1,550 Descending New York Center
Mon 07:23:51 AM 41.0211 -76.8658 103° East 459 528 23,500 -1,600 Descending New York Center
Mon 07:24:51 AM 40.9964 -76.6986 101° East 459 528 21,900 -1,550 Descending New York Center
Mon 07:25:51 AM 40.9667 -76.5392 104° East 459 528 20,400 -1,550 Descending New York Center
Mon 07:26:51 AM 40.9431 -76.3778 101° East 459 528 18,800 -1,200 Descending New York Center
Mon 07:27:51 AM 40.9169 -76.2247 103° East 441 507 18,000 -500 Descending New York Center
Mon 07:28:51 AM 40.8836 -76.0903 108° East 426 490 17,800 -700 Descending New York Center
Mon 07:29:51 AM 40.8483 -75.9447 108° East 426 490 16,600 -1,400 Descending New York Center
Mon 07:30:51 AM 40.8128 -75.8022 108° East 414 476 15,000 -1,600 Descending New York Center
Mon 07:31:51 AM 40.7756 -75.6489 108° East 401 461 13,400 -1,200 Descending New York Center
Mon 07:32:51 AM 40.7414 -75.5122 108° East 396 456 12,600 -1,150 Descending New York Center
Mon 07:33:51 AM 40.6944 -75.3803 115° Southeast 396 456 11,100 -1,300 Descending New York Center
Mon 07:34:51 AM 40.6533 -75.2572 114° Southeast 378 435 10,000 -550 Descending New York Center
Mon 07:35:51 AM 40.6103 -75.1339 115° Southeast 372 428 10,000  Level New York Center
Mon 07:36:51 AM 40.5689 -75.0083 113° Southeast 367 422 10,000  Level New York Center
Mon 07:37:51 AM 40.5353 -74.8997 112° Southeast 367 422 10,000  Level New York Center
Mon 07:38:51 AM 40.4997 -74.7775 111° Southeast 338 389 10,000  Level New York Center
Mon 07:39:51 AM 40.4497 -74.7203 139° Southeast 278 320 10,000 -356 Level New York Center
Mon 07:40:49 AM 40.4000 -74.6500 133° Southeast 259 298 9,300 -508 Descending New York TRACON
Mon 07:41:49 AM 40.3500 -74.5833 135° Southeast 261 300 9,000 -450 Descending New York TRACON
Mon 07:42:49 AM 40.3167 -74.5000 118° Southeast 263 303 8,400 -600 Descending New York TRACON
Mon 07:43:49 AM 40.3500 -74.4167 62° Northeast 246 283 7,800 -737 Descending New York TRACON
Mon 07:44:43 AM 40.3667 -74.3500 72° East 243 280 7,000 -421 Descending New York TRACON
Mon 07:45:43 AM 40.4000 -74.2667 62° Northeast 234 269 7,000  Level New York TRACON
Mon 07:46:37 AM 40.4333 -74.2000 57° Northeast 234 269 7,000 -632 Level New York TRACON
Mon 07:47:37 AM 40.4833 -74.1500 37° Northeast 234 269 5,800 -1,400 Descending New York TRACON
Mon 07:48:37 AM 40.5333 -74.1000 37° Northeast 232 267 4,200 -1,421 Descending New York TRACON
Mon 07:49:31 AM 40.5833 -74.0500 37° Northeast 217 250 3,100 -632 Descending New York TRACON
Mon 07:50:31 AM 40.6167 -74.0167 37° Northeast 190 219 3,000 -158 Descending New York TRACON
Mon 07:51:25 AM 40.6500 -73.9833 37° Northeast 182 209 2,800 -632 Descending New York TRACON
Mon 07:52:25 AM 40.7000 -73.9500 27° Northeast 164 189 1,800 -843 Descending New York TRACON
Mon 07:53:26 AM 40.7333 -73.9167 37° Northeast 130 150 1,100 -694 Descending New York TRACON
Mon 07:54:26 AM 40.7500 -73.9000 37° Northeast 132 152 400 -700 Descending New York TRACON

Login

Don't have an account? Register now (free) for customized features, flight alerts, and more!